sensor_id;sensor_type;location;lat;lon;timestamp;pressure;altitude;pressure_sealevel;temperature;humidity
10060;BME280;5069;49.306;8.636;2024-02-23T00:00:55;98402.81;;;9.50;100.00
10060;BME280;5069;49.306;8.636;2024-02-23T00:03:56;98424.78;;;9.49;100.00
10060;BME280;5069;49.306;8.636;2024-02-23T00:06:58;98412.72;;;9.45;100.00
10060;BME280;5069;49.306;8.636;2024-02-23T00:09:59;98423.44;;;9.42;100.00
10060;BME280;5069;49.306;8.636;2024-02-23T00:13:01;98433.03;;;9.43;100.00
10060;BME280;5069;49.306;8.636;2024-02-23T00:16:03;98434.63;;;9.46;100.00
10060;BME280;5069;49.306;8.636;2024-02-23T00:19:05;98439.09;;;9.30;100.00
10060;BME280;5069;49.306;8.636;2024-02-23T00:22:06;98452.38;;;9.28;100.00
10060;BME280;5069;49.306;8.636;2024-02-23T00:25:09;98459.66;;;9.23;100.00
10060;BME280;5069;49.306;8.636;2024-02-23T00:28:11;98455.50;;;9.19;100.00
10060;BME280;5069;49.306;8.636;2024-02-23T00:31:12;98457.97;;;9.22;100.00
10060;BME280;5069;49.306;8.636;2024-02-23T00:34:14;98473.91;;;9.19;100.00
10060;BME280;5069;49.306;8.636;2024-02-23T00:37:16;98475.25;;;9.26;100.00
10060;BME280;5069;49.306;8.636;2024-02-23T00:40:17;98487.31;;;9.15;100.00
10060;BME280;5069;49.306;8.636;2024-02-23T00:43:19;98495.38;;;9.11;100.00
10060;BME280;5069;49.306;8.636;2024-02-23T00:46:21;98500.25;;;9.03;100.00
10060;BME280;5069;49.306;8.636;2024-02-23T00:49:23;98491.31;;;9.06;100.00
10060;BME280;5069;49.306;8.636;2024-02-23T00:52:25;98480.59;;;8.95;100.00
10060;BME280;5069;49.306;8.636;2024-02-23T00:55:26;98478.53;;;9.00;100.00
10060;BME280;5069;49.306;8.636;2024-02-23T00:58:28;98482.28;;;8.96;100.00
10060;BME280;5069;49.306;8.636;2024-02-23T01:01:29;98483.47;;;8.90;100.00
10060;BME280;5069;49.306;8.636;2024-02-23T01:04:31;98489.78;;;8.88;100.00
10060;BME280;5069;49.306;8.636;2024-02-23T01:07:32;98503.84;;;8.87;100.00
10060;BME280;5069;49.306;8.636;2024-02-23T01:10:34;98522.66;;;8.79;100.00
10060;BME280;5069;49.306;8.636;2024-02-23T01:13:36;98520.88;;;8.80;100.00
10060;BME280;5069;49.306;8.636;2024-02-23T01:16:37;98522.06;;;8.74;100.00
10060;BME280;5069;49.306;8.636;2024-02-23T01:19:40;98514.38;;;8.71;100.00
10060;BME280;5069;49.306;8.636;2024-02-23T01:22:42;98520.44;;;8.56;100.00
10060;BME280;5069;49.306;8.636;2024-02-23T01:25:44;98519.59;;;8.55;100.00
10060;BME280;5069;49.306;8.636;2024-02-23T01:28:45;98521.97;;;8.44;100.00
10060;BME280;5069;49.306;8.636;2024-02-23T01:31:47;98518.41;;;8.45;100.00
10060;BME280;5069;49.306;8.636;2024-02-23T01:34:48;98532.47;;;8.44;100.00
10060;BME280;5069;49.306;8.636;2024-02-23T01:37:50;98539.41;;;8.45;100.00
10060;BME280;5069;49.306;8.636;2024-02-23T01:40:51;98524.31;;;8.33;100.00
10060;BME280;5069;49.306;8.636;2024-02-23T01:43:53;98529.78;;;8.28;100.00
10060;BME280;5069;49.306;8.636;2024-02-23T01:46:54;98530.06;;;8.24;100.00
10060;BME280;5069;49.306;8.636;2024-02-23T01:49:58;98548.03;;;8.32;100.00
10060;BME280;5069;49.306;8.636;2024-02-23T01:53:02;98546.03;;;8.37;100.00
10060;BME280;5069;49.306;8.636;2024-02-23T01:56:04;98557.72;;;8.31;100.00
10060;BME280;5069;49.306;8.636;2024-02-23T01:59:07;98572.78;;;8.26;100.00
10060;BME280;5069;49.306;8.636;2024-02-23T02:02:11;98578.03;;;8.26;100.00
10060;BME280;5069;49.306;8.636;2024-02-23T02:05:14;98580.78;;;8.24;100.00
10060;BME280;5069;49.306;8.636;2024-02-23T02:08:16;98572.91;;;8.24;100.00
10060;BME280;5069;49.306;8.636;2024-02-23T02:11:18;98585.72;;;8.31;100.00
10060;BME280;5069;49.306;8.636;2024-02-23T02:14:20;98582.06;;;8.33;100.00
10060;BME280;5069;49.306;8.636;2024-02-23T02:17:21;98582.25;;;8.30;100.00
10060;BME280;5069;49.306;8.636;2024-02-23T02:20:24;98588.47;;;8.27;100.00
10060;BME280;5069;49.306;8.636;2024-02-23T02:23:27;98599.16;;;8.24;100.00
10060;BME280;5069;49.306;8.636;2024-02-23T02:26:29;98592.97;;;8.25;100.00
10060;BME280;5069;49.306;8.636;2024-02-23T02:29:31;98600.13;;;8.22;100.00
10060;BME280;5069;49.306;8.636;2024-02-23T02:32:32;98608.00;;;8.39;100.00
10060;BME280;5069;49.306;8.636;2024-02-23T02:35:37;98610.31;;;8.28;100.00
10060;BME280;5069;49.306;8.636;2024-02-23T02:38:39;98611.41;;;8.24;100.00
10060;BME280;5069;49.306;8.636;2024-02-23T02:41:41;98613.88;;;8.27;100.00
10060;BME280;5069;49.306;8.636;2024-02-23T02:44:42;98612.25;;;8.24;100.00
10060;BME280;5069;49.306;8.636;2024-02-23T02:47:44;98607.75;;;8.26;100.00
10060;BME280;5069;49.306;8.636;2024-02-23T02:50:45;98612.00;;;8.29;100.00
10060;BME280;5069;49.306;8.636;2024-02-23T02:53:47;98613.56;;;8.33;100.00
10060;BME280;5069;49.306;8.636;2024-02-23T02:56:48;98605.78;;;8.32;100.00
10060;BME280;5069;49.306;8.636;2024-02-23T02:59:51;98607.59;;;8.31;100.00
10060;BME280;5069;49.306;8.636;2024-02-23T03:02:53;98618.06;;;8.31;100.00
10060;BME280;5069;49.306;8.636;2024-02-23T03:05:55;98618.69;;;8.36;100.00
10060;BME280;5069;49.306;8.636;2024-02-23T03:08:57;98616.47;;;8.44;100.00
10060;BME280;5069;49.306;8.636;2024-02-23T03:11:58;98628.94;;;8.41;100.00
10060;BME280;5069;49.306;8.636;2024-02-23T03:15:00;98620.38;;;8.37;100.00
10060;BME280;5069;49.306;8.636;2024-02-23T03:18:01;98616.41;;;8.28;100.00
10060;BME280;5069;49.306;8.636;2024-02-23T03:21:03;98620.69;;;8.31;100.00
10060;BME280;5069;49.306;8.636;2024-02-23T03:24:05;98629.41;;;8.32;100.00
10060;BME280;5069;49.306;8.636;2024-02-23T03:27:06;98620.53;;;8.34;100.00
10060;BME280;5069;49.306;8.636;2024-02-23T03:30:08;98613.88;;;8.27;100.00
10060;BME280;5069;49.306;8.636;2024-02-23T03:33:10;98621.38;;;8.35;100.00
10060;BME280;5069;49.306;8.636;2024-02-23T03:36:12;98619.69;;;8.16;100.00
10060;BME280;5069;49.306;8.636;2024-02-23T03:39:13;98624.38;;;8.27;100.00
10060;BME280;5069;49.306;8.636;2024-02-23T03:42:15;98616.75;;;8.22;100.00
10060;BME280;5069;49.306;8.636;2024-02-23T03:45:17;98623.00;;;8.20;100.00
10060;BME280;5069;49.306;8.636;2024-02-23T03:48:18;98628.25;;;8.20;100.00
10060;BME280;5069;49.306;8.636;2024-02-23T03:51:20;98627.16;;;8.24;100.00
10060;BME280;5069;49.306;8.636;2024-02-23T03:54:21;98618.81;;;8.16;100.00
10060;BME280;5069;49.306;8.636;2024-02-23T03:57:23;98634.19;;;8.23;100.00
10060;BME280;5069;49.306;8.636;2024-02-23T04:00:24;98623.94;;;8.19;100.00
10060;BME280;5069;49.306;8.636;2024-02-23T04:03:26;98629.78;;;8.24;100.00
10060;BME280;5069;49.306;8.636;2024-02-23T04:06:27;98631.94;;;8.16;100.00
10060;BME280;5069;49.306;8.636;2024-02-23T04:09:28;98646.53;;;8.21;100.00
10060;BME280;5069;49.306;8.636;2024-02-23T04:12:30;98641.75;;;8.12;100.00
10060;BME280;5069;49.306;8.636;2024-02-23T04:15:32;98650.19;;;8.02;100.00
10060;BME280;5069;49.306;8.636;2024-02-23T04:18:34;98659.28;;;7.95;100.00
10060;BME280;5069;49.306;8.636;2024-02-23T04:21:35;98664.78;;;7.90;100.00
10060;BME280;5069;49.306;8.636;2024-02-23T04:24:40;98659.59;;;7.88;100.00
10060;BME280;5069;49.306;8.636;2024-02-23T04:27:42;98666.38;;;7.93;100.00
10060;BME280;5069;49.306;8.636;2024-02-23T04:30:44;98667.53;;;7.87;100.00
10060;BME280;5069;49.306;8.636;2024-02-23T04:33:46;98667.41;;;7.90;100.00
10060;BME280;5069;49.306;8.636;2024-02-23T04:36:47;98663.38;;;7.83;100.00
10060;BME280;5069;49.306;8.636;2024-02-23T04:39:49;98671.31;;;7.81;100.00
10060;BME280;5069;49.306;8.636;2024-02-23T04:42:50;98664.03;;;7.69;100.00
10060;BME280;5069;49.306;8.636;2024-02-23T04:45:51;98652.56;;;7.72;100.00
10060;BME280;5069;49.306;8.636;2024-02-23T04:48:53;98657.44;;;7.62;100.00
10060;BME280;5069;49.306;8.636;2024-02-23T04:51:54;98652.25;;;7.61;100.00
10060;BME280;5069;49.306;8.636;2024-02-23T04:54:56;98654.19;;;7.57;100.00
10060;BME280;5069;49.306;8.636;2024-02-23T04:57:57;98640.84;;;7.62;100.00
10060;BME280;5069;49.306;8.636;2024-02-23T05:00:59;98652.63;;;7.53;100.00
10060;BME280;5069;49.306;8.636;2024-02-23T05:04:01;98644.84;;;7.52;100.00
10060;BME280;5069;49.306;8.636;2024-02-23T05:07:03;98657.16;;;7.50;100.00
10060;BME280;5069;49.306;8.636;2024-02-23T05:10:05;98656.13;;;7.35;100.00
10060;BME280;5069;49.306;8.636;2024-02-23T05:13:06;98655.38;;;7.33;100.00
10060;BME280;5069;49.306;8.636;2024-02-23T05:16:08;98653.59;;;7.33;100.00
10060;BME280;5069;49.306;8.636;2024-02-23T05:19:09;98664.84;;;7.35;100.00
10060;BME280;5069;49.306;8.636;2024-02-23T05:22:11;98665.13;;;7.29;100.00
10060;BME280;5069;49.306;8.636;2024-02-23T05:25:12;98668.75;;;7.27;100.00
10060;BME280;5069;49.306;8.636;2024-02-23T05:28:14;98671.22;;;7.30;100.00
10060;BME280;5069;49.306;8.636;2024-02-23T05:31:15;98668.53;;;7.31;100.00
10060;BME280;5069;49.306;8.636;2024-02-23T05:34:17;98675.53;;;7.31;100.00
10060;BME280;5069;49.306;8.636;2024-02-23T05:37:20;98685.28;;;7.29;100.00
10060;BME280;5069;49.306;8.636;2024-02-23T05:40:21;98681.41;;;7.36;100.00
10060;BME280;5069;49.306;8.636;2024-02-23T05:43:22;98678.03;;;7.34;100.00
10060;BME280;5069;49.306;8.636;2024-02-23T05:46:24;98686.31;;;7.43;100.00
10060;BME280;5069;49.306;8.636;2024-02-23T05:49:26;98693.75;;;7.34;100.00
10060;BME280;5069;49.306;8.636;2024-02-23T05:52:27;98695.44;;;7.35;100.00
10060;BME280;5069;49.306;8.636;2024-02-23T05:55:29;98702.25;;;7.39;100.00
10060;BME280;5069;49.306;8.636;2024-02-23T05:58:30;98692.91;;;7.33;100.00
10060;BME280;5069;49.306;8.636;2024-02-23T06:01:32;98706.94;;;7.32;100.00
10060;BME280;5069;49.306;8.636;2024-02-23T06:04:33;98700.69;;;7.35;100.00
10060;BME280;5069;49.306;8.636;2024-02-23T06:07:35;98695.75;;;7.29;100.00
10060;BME280;5069;49.306;8.636;2024-02-23T06:10:38;98687.41;;;7.21;100.00
10060;BME280;5069;49.306;8.636;2024-02-23T06:13:39;98693.75;;;7.34;100.00
10060;BME280;5069;49.306;8.636;2024-02-23T06:16:41;98702.59;;;7.31;100.00
10060;BME280;5069;49.306;8.636;2024-02-23T06:19:42;98710.06;;;7.22;100.00
10060;BME280;5069;49.306;8.636;2024-02-23T06:22:44;98713.72;;;7.18;100.00
10060;BME280;5069;49.306;8.636;2024-02-23T06:25:45;98715.72;;;7.13;100.00
10060;BME280;5069;49.306;8.636;2024-02-23T06:28:48;98721.38;;;7.03;100.00
10060;BME280;5069;49.306;8.636;2024-02-23T06:31:50;98718.34;;;7.13;100.00
10060;BME280;5069;49.306;8.636;2024-02-23T06:34:51;98717.84;;;7.04;100.00
10060;BME280;5069;49.306;8.636;2024-02-23T06:37:53;98731.72;;;7.06;100.00
10060;BME280;5069;49.306;8.636;2024-02-23T06:40:54;98725.28;;;7.14;100.00
10060;BME280;5069;49.306;8.636;2024-02-23T06:43:57;98725.50;;;7.09;100.00
10060;BME280;5069;49.306;8.636;2024-02-23T06:46:59;98721.66;;;6.97;100.00
10060;BME280;5069;49.306;8.636;2024-02-23T06:50:00;98719.97;;;6.96;100.00
10060;BME280;5069;49.306;8.636;2024-02-23T06:53:02;98720.69;;;7.00;100.00
10060;BME280;5069;49.306;8.636;2024-02-23T06:56:04;98709.91;;;6.87;100.00
10060;BME280;5069;49.306;8.636;2024-02-23T06:59:05;98718.63;;;6.88;100.00
10060;BME280;5069;49.306;8.636;2024-02-23T07:02:07;98716.97;;;6.85;100.00
10060;BME280;5069;49.306;8.636;2024-02-23T07:05:08;98724.06;;;6.83;100.00
10060;BME280;5069;49.306;8.636;2024-02-23T07:08:11;98728.31;;;6.86;100.00
10060;BME280;5069;49.306;8.636;2024-02-23T07:11:12;98722.94;;;6.89;100.00
10060;BME280;5069;49.306;8.636;2024-02-23T07:14:14;98720.50;;;6.84;100.00
10060;BME280;5069;49.306;8.636;2024-02-23T07:17:18;98732.75;;;6.84;100.00
10060;BME280;5069;49.306;8.636;2024-02-23T07:20:20;98735.19;;;6.88;100.00
10060;BME280;5069;49.306;8.636;2024-02-23T07:23:21;98741.47;;;6.84;100.00
10060;BME280;5069;49.306;8.636;2024-02-23T07:26:24;98748.00;;;6.94;100.00
10060;BME280;5069;49.306;8.636;2024-02-23T07:29:25;98741.06;;;6.93;100.00
10060;BME280;5069;49.306;8.636;2024-02-23T07:32:27;98743.19;;;7.04;100.00
10060;BME280;5069;49.306;8.636;2024-02-23T07:35:31;98748.72;;;6.98;100.00
10060;BME280;5069;49.306;8.636;2024-02-23T07:38:33;98743.13;;;7.05;100.00
10060;BME280;5069;49.306;8.636;2024-02-23T07:41:34;98738.28;;;6.96;100.00
10060;BME280;5069;49.306;8.636;2024-02-23T07:44:36;98747.75;;;7.00;100.00
10060;BME280;5069;49.306;8.636;2024-02-23T07:47:38;98743.91;;;7.07;100.00
10060;BME280;5069;49.306;8.636;2024-02-23T07:50:40;98747.03;;;7.16;100.00
10060;BME280;5069;49.306;8.636;2024-02-23T07:53:42;98753.97;;;7.17;100.00
10060;BME280;5069;49.306;8.636;2024-02-23T07:56:48;98762.94;;;7.30;100.00
10060;BME280;5069;49.306;8.636;2024-02-23T07:59:49;98761.03;;;7.52;100.00
10060;BME280;5069;49.306;8.636;2024-02-23T08:02:51;98760.91;;;7.55;100.00
10060;BME280;5069;49.306;8.636;2024-02-23T08:05:52;98753.94;;;7.73;100.00
10060;BME280;5069;49.306;8.636;2024-02-23T08:08:54;98762.59;;;7.92;100.00
10060;BME280;5069;49.306;8.636;2024-02-23T08:11:56;98759.78;;;8.14;100.00
10060;BME280;5069;49.306;8.636;2024-02-23T08:14:58;98760.09;;;8.25;100.00
10060;BME280;5069;49.306;8.636;2024-02-23T08:17:59;98760.59;;;8.33;100.00
10060;BME280;5069;49.306;8.636;2024-02-23T08:21:01;98758.75;;;8.35;99.97
10060;BME280;5069;49.306;8.636;2024-02-23T08:24:04;98749.47;;;8.45;100.00
10060;BME280;5069;49.306;8.636;2024-02-23T08:27:06;98759.47;;;8.54;100.00
10060;BME280;5069;49.306;8.636;2024-02-23T08:30:08;98755.94;;;8.55;99.19
10060;BME280;5069;49.306;8.636;2024-02-23T08:33:10;98760.44;;;8.36;98.79
10060;BME280;5069;49.306;8.636;2024-02-23T08:36:11;98755.63;;;8.44;99.04
10060;BME280;5069;49.306;8.636;2024-02-23T08:39:13;98759.34;;;8.40;99.32
10060;BME280;5069;49.306;8.636;2024-02-23T08:42:14;98756.09;;;8.52;100.00
10060;BME280;5069;49.306;8.636;2024-02-23T08:45:16;98750.53;;;8.76;99.40
10060;BME280;5069;49.306;8.636;2024-02-23T08:48:18;98742.75;;;8.90;100.00
10060;BME280;5069;49.306;8.636;2024-02-23T08:51:19;98742.91;;;8.87;97.12
10060;BME280;5069;49.306;8.636;2024-02-23T08:54:21;98735.13;;;9.01;98.34
10060;BME280;5069;49.306;8.636;2024-02-23T08:57:22;98738.03;;;9.12;98.44
10060;BME280;5069;49.306;8.636;2024-02-23T09:00:24;98730.41;;;9.23;95.59
10060;BME280;5069;49.306;8.636;2024-02-23T09:03:26;98723.38;;;9.24;96.40
10060;BME280;5069;49.306;8.636;2024-02-23T09:06:27;98722.91;;;9.33;92.68
10060;BME280;5069;49.306;8.636;2024-02-23T09:09:29;98718.50;;;9.33;87.71
10060;BME280;5069;49.306;8.636;2024-02-23T09:12:31;98718.31;;;9.36;88.38
10060;BME280;5069;49.306;8.636;2024-02-23T09:15:32;98711.19;;;9.38;89.61
10060;BME280;5069;49.306;8.636;2024-02-23T09:18:35;98707.53;;;9.25;86.22
10060;BME280;5069;49.306;8.636;2024-02-23T09:21:36;98708.19;;;9.13;86.02
10060;BME280;5069;49.306;8.636;2024-02-23T09:24:41;98701.00;;;9.17;90.57
10060;BME280;5069;49.306;8.636;2024-02-23T09:27:43;98705.59;;;9.44;89.42
10060;BME280;5069;49.306;8.636;2024-02-23T09:30:45;98701.16;;;9.61;88.72
10060;BME280;5069;49.306;8.636;2024-02-23T09:33:46;98704.19;;;9.69;90.83
10060;BME280;5069;49.306;8.636;2024-02-23T09:36:50;98688.06;;;9.75;85.73
10060;BME280;5069;49.306;8.636;2024-02-23T09:39:51;98696.59;;;9.94;84.62
10060;BME280;5069;49.306;8.636;2024-02-23T09:42:56;98694.88;;;9.79;77.26
10060;BME280;5069;49.306;8.636;2024-02-23T09:45:59;98699.03;;;9.67;82.64
10060;BME280;5069;49.306;8.636;2024-02-23T09:49:02;98693.16;;;9.78;83.58
10060;BME280;5069;49.306;8.636;2024-02-23T09:52:07;98690.91;;;9.86;81.82
10060;BME280;5069;49.306;8.636;2024-02-23T09:55:09;98691.59;;;9.89;79.57
10060;BME280;5069;49.306;8.636;2024-02-23T09:58:12;98694.13;;;9.91;82.88
10060;BME280;5069;49.306;8.636;2024-02-23T10:01:24;98699.03;;;9.97;80.92
10060;BME280;5069;49.306;8.636;2024-02-23T10:04:28;98709.09;;;9.75;82.50
10060;BME280;5069;49.306;8.636;2024-02-23T10:07:32;98701.97;;;9.77;83.99
10060;BME280;5069;49.306;8.636;2024-02-23T10:10:34;98714.03;;;9.81;81.90
10060;BME280;5069;49.306;8.636;2024-02-23T10:13:41;98699.72;;;10.01;83.47
10060;BME280;5069;49.306;8.636;2024-02-23T10:16:42;98702.44;;;9.99;82.16
10060;BME280;5069;49.306;8.636;2024-02-23T10:19:44;98707.78;;;10.13;82.76
10060;BME280;5069;49.306;8.636;2024-02-23T10:22:45;98715.41;;;10.48;79.47
10060;BME280;5069;49.306;8.636;2024-02-23T10:25:47;98706.13;;;10.26;77.88
10060;BME280;5069;49.306;8.636;2024-02-23T10:28:48;98715.78;;;10.42;77.00
10060;BME280;5069;49.306;8.636;2024-02-23T10:31:52;98718.53;;;10.68;73.73
10060;BME280;5069;49.306;8.636;2024-02-23T10:34:55;98718.72;;;10.80;74.50
10060;BME280;5069;49.306;8.636;2024-02-23T10:37:57;98720.03;;;10.72;73.41
10060;BME280;5069;49.306;8.636;2024-02-23T10:41:03;98715.72;;;10.86;73.76
10060;BME280;5069;49.306;8.636;2024-02-23T10:44:07;98727.03;;;10.88;72.95
10060;BME280;5069;49.306;8.636;2024-02-23T10:47:08;98719.38;;;10.69;72.36
10060;BME280;5069;49.306;8.636;2024-02-23T10:50:10;98726.16;;;10.87;70.11
10060;BME280;5069;49.306;8.636;2024-02-23T10:58:07;98720.88;;;11.01;69.72
10060;BME280;5069;49.306;8.636;2024-02-23T11:01:13;98712.97;;;11.01;70.80
10060;BME280;5069;49.306;8.636;2024-02-23T11:04:16;98714.41;;;10.93;69.59
10060;BME280;5069;49.306;8.636;2024-02-23T11:07:19;98709.38;;;10.88;67.69
10060;BME280;5069;49.306;8.636;2024-02-23T11:10:22;98716.56;;;10.86;70.28
10060;BME280;5069;49.306;8.636;2024-02-23T11:13:39;98697.34;;;10.70;70.39
10060;BME280;5069;49.306;8.636;2024-02-23T11:16:40;98703.19;;;10.75;70.23
10060;BME280;5069;49.306;8.636;2024-02-23T11:19:46;98692.28;;;10.81;68.77
10060;BME280;5069;49.306;8.636;2024-02-23T11:22:51;98684.91;;;11.14;69.97
10060;BME280;5069;49.306;8.636;2024-02-23T11:29:12;98691.28;;;11.25;68.77
10060;BME280;5069;49.306;8.636;2024-02-23T11:32:16;98676.28;;;11.66;64.86
10060;BME280;5069;49.306;8.636;2024-02-23T11:35:18;98669.63;;;11.87;62.66
10060;BME280;5069;49.306;8.636;2024-02-23T11:38:23;98673.56;;;11.94;61.86
10060;BME280;5069;49.306;8.636;2024-02-23T11:41:25;98679.84;;;11.79;63.47
10060;BME280;5069;49.306;8.636;2024-02-23T11:44:27;98671.19;;;11.50;65.10
10060;BME280;5069;49.306;8.636;2024-02-23T11:47:29;98674.09;;;11.46;65.72
10060;BME280;5069;49.306;8.636;2024-02-23T11:50:30;98678.47;;;11.33;66.09
10060;BME280;5069;49.306;8.636;2024-02-23T11:53:32;98684.13;;;11.27;66.93
10060;BME280;5069;49.306;8.636;2024-02-23T11:56:34;98677.38;;;11.08;68.97
10060;BME280;5069;49.306;8.636;2024-02-23T11:59:35;98675.50;;;11.10;66.56
10060;BME280;5069;49.306;8.636;2024-02-23T12:02:37;98674.38;;;11.00;66.60
10060;BME280;5069;49.306;8.636;2024-02-23T12:05:39;98675.13;;;11.02;67.08
10060;BME280;5069;49.306;8.636;2024-02-23T12:08:41;98669.81;;;11.16;65.76
10060;BME280;5069;49.306;8.636;2024-02-23T12:11:43;98667.78;;;11.07;67.15
10060;BME280;5069;49.306;8.636;2024-02-23T12:14:44;98673.63;;;10.98;68.78
10060;BME280;5069;49.306;8.636;2024-02-23T12:17:47;98678.16;;;10.82;69.03
10060;BME280;5069;49.306;8.636;2024-02-23T12:20:49;98677.56;;;10.77;70.51
10060;BME280;5069;49.306;8.636;2024-02-23T12:23:51;98675.59;;;10.66;70.79
10060;BME280;5069;49.306;8.636;2024-02-23T12:26:54;98685.66;;;10.46;72.93
10060;BME280;5069;49.306;8.636;2024-02-23T12:29:56;98685.28;;;10.52;74.10
10060;BME280;5069;49.306;8.636;2024-02-23T12:33:05;98685.19;;;10.39;76.27
10060;BME280;5069;49.306;8.636;2024-02-23T12:36:08;98682.81;;;10.49;75.83
10060;BME280;5069;49.306;8.636;2024-02-23T12:39:11;98675.31;;;10.57;77.83
10060;BME280;5069;49.306;8.636;2024-02-23T12:42:13;98663.84;;;10.58;75.27
10060;BME280;5069;49.306;8.636;2024-02-23T12:45:14;98666.47;;;10.72;75.63
10060;BME280;5069;49.306;8.636;2024-02-23T12:48:16;98673.34;;;10.89;75.56
10060;BME280;5069;49.306;8.636;2024-02-23T12:51:18;98667.22;;;11.02;75.17
10060;BME280;5069;49.306;8.636;2024-02-23T12:54:19;98663.22;;;11.24;72.03
10060;BME280;5069;49.306;8.636;2024-02-23T12:57:21;98658.78;;;11.24;72.81
10060;BME280;5069;49.306;8.636;2024-02-23T13:00:22;98666.69;;;11.38;70.74
10060;BME280;5069;49.306;8.636;2024-02-23T13:03:25;98666.63;;;11.52;68.43
10060;BME280;5069;49.306;8.636;2024-02-23T13:06:28;98655.38;;;11.63;67.16
10060;BME280;5069;49.306;8.636;2024-02-23T13:09:29;98652.94;;;11.60;67.54
10060;BME280;5069;49.306;8.636;2024-02-23T13:12:31;98644.94;;;11.62;63.95
10060;BME280;5069;49.306;8.636;2024-02-23T13:15:32;98650.34;;;11.73;68.10
10060;BME280;5069;49.306;8.636;2024-02-23T13:18:34;98650.63;;;11.68;65.49
10060;BME280;5069;49.306;8.636;2024-02-23T13:21:35;98650.47;;;11.57;64.23
10060;BME280;5069;49.306;8.636;2024-02-23T13:24:37;98648.22;;;11.65;65.73
10060;BME280;5069;49.306;8.636;2024-02-23T13:27:41;98648.38;;;11.76;67.04
10060;BME280;5069;49.306;8.636;2024-02-23T13:30:43;98655.38;;;11.63;65.92
10060;BME280;5069;49.306;8.636;2024-02-23T13:33:45;98660.47;;;11.66;66.14
10060;BME280;5069;49.306;8.636;2024-02-23T13:36:47;98646.59;;;11.77;60.61
10060;BME280;5069;49.306;8.636;2024-02-23T13:39:48;98651.00;;;11.76;61.80
10060;BME280;5069;49.306;8.636;2024-02-23T13:42:50;98647.44;;;11.77;62.58
10060;BME280;5069;49.306;8.636;2024-02-23T13:45:53;98642.00;;;11.66;64.65
10060;BME280;5069;49.306;8.636;2024-02-23T13:49:03;98636.03;;;11.77;66.08
10060;BME280;5069;49.306;8.636;2024-02-23T13:52:06;98641.84;;;11.82;63.89
10060;BME280;5069;49.306;8.636;2024-02-23T13:55:08;98631.03;;;11.72;62.16
10060;BME280;5069;49.306;8.636;2024-02-23T13:58:10;98630.34;;;11.56;64.49
10060;BME280;5069;49.306;8.636;2024-02-23T14:01:13;98620.28;;;11.48;64.79
10060;BME280;5069;49.306;8.636;2024-02-23T14:04:15;98627.25;;;11.49;65.18
10060;BME280;5069;49.306;8.636;2024-02-23T14:07:16;98622.72;;;11.51;65.55
10060;BME280;5069;49.306;8.636;2024-02-23T14:10:19;98616.28;;;11.29;64.45
10060;BME280;5069;49.306;8.636;2024-02-23T14:13:21;98609.91;;;11.18;64.13
10060;BME280;5069;49.306;8.636;2024-02-23T14:16:23;98601.56;;;11.12;65.40
10060;BME280;5069;49.306;8.636;2024-02-23T14:19:24;98601.00;;;11.07;64.98
10060;BME280;5069;49.306;8.636;2024-02-23T14:22:26;98599.38;;;11.18;67.26
10060;BME280;5069;49.306;8.636;2024-02-23T14:25:31;98589.38;;;11.24;67.63
10060;BME280;5069;49.306;8.636;2024-02-23T14:28:32;98598.03;;;11.26;66.60
10060;BME280;5069;49.306;8.636;2024-02-23T14:31:34;98587.50;;;11.26;65.06
10060;BME280;5069;49.306;8.636;2024-02-23T14:34:35;98595.94;;;11.31;66.49
10060;BME280;5069;49.306;8.636;2024-02-23T14:37:37;98594.34;;;11.28;66.34
10060;BME280;5069;49.306;8.636;2024-02-23T14:40:38;98585.19;;;11.34;65.09
10060;BME280;5069;49.306;8.636;2024-02-23T14:43:40;98587.28;;;11.29;66.10
10060;BME280;5069;49.306;8.636;2024-02-23T14:46:41;98587.59;;;11.24;66.92
10060;BME280;5069;49.306;8.636;2024-02-23T14:49:44;98583.38;;;11.22;65.78
10060;BME280;5069;49.306;8.636;2024-02-23T14:52:46;98587.88;;;11.19;64.98
10060;BME280;5069;49.306;8.636;2024-02-23T14:55:47;98585.28;;;11.05;65.87
10060;BME280;5069;49.306;8.636;2024-02-23T14:58:49;98578.06;;;10.95;68.22
10060;BME280;5069;49.306;8.636;2024-02-23T15:01:51;98591.16;;;10.96;69.73
10060;BME280;5069;49.306;8.636;2024-02-23T15:04:52;98587.75;;;10.94;67.79
10060;BME280;5069;49.306;8.636;2024-02-23T15:07:54;98596.22;;;10.99;69.13
10060;BME280;5069;49.306;8.636;2024-02-23T15:10:56;98585.94;;;11.09;67.66
10060;BME280;5069;49.306;8.636;2024-02-23T15:13:58;98588.13;;;11.29;67.60
10060;BME280;5069;49.306;8.636;2024-02-23T15:16:59;98590.47;;;11.34;65.40
10060;BME280;5069;49.306;8.636;2024-02-23T15:20:01;98588.00;;;11.57;63.96
10060;BME280;5069;49.306;8.636;2024-02-23T15:23:03;98586.03;;;11.61;62.94
10060;BME280;5069;49.306;8.636;2024-02-23T15:26:06;98582.28;;;11.51;61.67
10060;BME280;5069;49.306;8.636;2024-02-23T15:29:12;98578.03;;;11.36;59.99
10060;BME280;5069;49.306;8.636;2024-02-23T15:32:14;98579.47;;;11.27;61.07
10060;BME280;5069;49.306;8.636;2024-02-23T15:35:18;98571.84;;;11.23;61.55
10060;BME280;5069;49.306;8.636;2024-02-23T15:38:20;98571.44;;;11.29;61.00
10060;BME280;5069;49.306;8.636;2024-02-23T15:41:22;98572.41;;;11.28;61.93
10060;BME280;5069;49.306;8.636;2024-02-23T15:44:23;98567.47;;;11.36;63.07
10060;BME280;5069;49.306;8.636;2024-02-23T15:47:25;98572.03;;;11.46;63.88
10060;BME280;5069;49.306;8.636;2024-02-23T15:50:26;98568.38;;;11.49;64.23
10060;BME280;5069;49.306;8.636;2024-02-23T15:53:49;98572.13;;;11.45;64.58
10060;BME280;5069;49.306;8.636;2024-02-23T15:56:51;98568.94;;;11.40;64.62
10060;BME280;5069;49.306;8.636;2024-02-23T15:59:52;98573.28;;;11.41;65.64
10060;BME280;5069;49.306;8.636;2024-02-23T16:03:05;98564.28;;;11.31;65.72
10060;BME280;5069;49.306;8.636;2024-02-23T16:06:06;98563.69;;;11.40;67.06
10060;BME280;5069;49.306;8.636;2024-02-23T16:09:08;98567.06;;;11.42;67.77
10060;BME280;5069;49.306;8.636;2024-02-23T16:12:10;98569.84;;;11.53;69.11
10060;BME280;5069;49.306;8.636;2024-02-23T16:15:12;98575.28;;;11.37;68.09
10060;BME280;5069;49.306;8.636;2024-02-23T16:26:49;98569.84;;;10.99;79.60
10060;BME280;5069;49.306;8.636;2024-02-23T16:29:51;98572.16;;;10.91;82.59
10060;BME280;5069;49.306;8.636;2024-02-23T16:32:52;98574.94;;;11.02;81.57
10060;BME280;5069;49.306;8.636;2024-02-23T16:35:54;98569.28;;;10.94;84.32